createdAt,value
2018-09-08T00:00:30.790Z,11.60
2018-09-08T00:03:00.748Z,11.60
2018-09-08T00:05:29.606Z,11.50
2018-09-08T00:07:58.899Z,11.60
2018-09-08T00:10:27.243Z,11.60
2018-09-08T00:12:56.123Z,11.60
2018-09-08T00:15:29.821Z,11.60
2018-09-08T00:18:03.588Z,11.60
2018-09-08T00:20:37.237Z,11.60
2018-09-08T00:23:10.884Z,11.70
2018-09-08T00:25:44.710Z,11.70
2018-09-08T00:28:25.094Z,11.70
2018-09-08T00:30:53.507Z,11.80
2018-09-08T00:33:22.608Z,11.80
2018-09-08T00:35:51.103Z,11.80
2018-09-08T00:38:19.457Z,11.80
2018-09-08T00:40:47.924Z,11.70
2018-09-08T00:43:16.311Z,11.80
2018-09-08T00:45:44.791Z,11.80
2018-09-08T00:48:13.158Z,11.80
2018-09-08T00:53:34.812Z,11.80
2018-09-08T00:56:03.264Z,11.80
2018-09-08T00:58:31.707Z,11.80
2018-09-08T01:01:00.087Z,11.80
2018-09-08T01:03:28.521Z,11.80
2018-09-08T01:05:56.974Z,11.80
2018-09-08T01:08:25.437Z,11.80
2018-09-08T01:10:54.631Z,11.80
2018-09-08T01:13:23.086Z,11.80
2018-09-08T01:15:51.483Z,11.80
2018-09-08T01:18:19.866Z,11.80
2018-09-08T01:20:48.344Z,11.80
2018-09-08T01:23:16.686Z,11.80
2018-09-08T01:25:45.163Z,11.80
2018-09-08T01:28:14.049Z,11.70
2018-09-08T01:30:42.520Z,11.70
2018-09-08T01:33:11.721Z,11.70
2018-09-08T01:35:40.052Z,11.70
2018-09-08T01:38:08.445Z,11.70
2018-09-08T01:40:37.040Z,11.60
2018-09-08T01:43:05.449Z,11.60
2018-09-08T01:45:33.851Z,11.60
2018-09-08T01:48:02.339Z,11.60
2018-09-08T01:50:30.718Z,11.60
2018-09-08T01:52:59.713Z,11.60
2018-09-08T01:55:28.059Z,11.70
2018-09-08T01:57:56.470Z,11.70
2018-09-08T02:00:24.879Z,11.70
2018-09-08T02:02:53.241Z,11.70
2018-09-08T02:05:21.888Z,11.60
2018-09-08T02:07:50.203Z,11.70
2018-09-08T02:10:18.574Z,11.60
2018-09-08T02:17:41.739Z,11.60
2018-09-08T02:20:10.082Z,11.50
2018-09-08T02:22:38.469Z,11.50
2018-09-08T02:25:06.784Z,11.60
2018-09-08T02:27:35.287Z,11.60
2018-09-08T02:30:04.169Z,11.60
2018-09-08T02:32:32.632Z,11.70
2018-09-08T02:35:01.071Z,11.70
2018-09-08T02:37:29.724Z,11.70
2018-09-08T02:39:58.021Z,11.80
2018-09-08T02:42:26.689Z,11.80
2018-09-08T02:44:55.192Z,11.70
2018-09-08T02:47:23.603Z,11.70
2018-09-08T02:50:03.267Z,11.70
2018-09-08T02:52:30.552Z,11.70
2018-09-08T02:54:58.040Z,11.70
2018-09-08T02:57:25.401Z,11.70
2018-09-08T02:59:52.703Z,11.70
2018-09-08T03:02:20.023Z,11.70
2018-09-08T03:04:47.377Z,11.70
2018-09-08T03:07:15.474Z,11.70
2018-09-08T03:09:44.923Z,11.70
2018-09-08T03:12:12.536Z,11.60
2018-09-08T03:14:39.848Z,11.60
2018-09-08T03:17:07.757Z,11.60
2018-09-08T03:19:35.101Z,11.60
2018-09-08T03:22:02.413Z,11.60
2018-09-08T03:24:29.752Z,11.60
2018-09-08T03:26:57.097Z,11.50
2018-09-08T03:29:24.407Z,11.50
2018-09-08T03:31:51.705Z,11.50
2018-09-08T03:34:19.080Z,11.50
2018-09-08T03:36:46.407Z,11.50
2018-09-08T03:39:13.732Z,11.40
2018-09-08T03:41:41.083Z,11.50
2018-09-08T03:44:08.414Z,11.40
2018-09-08T03:46:35.743Z,11.40
2018-09-08T03:49:03.073Z,11.40
2018-09-08T03:51:30.445Z,11.40
2018-09-08T03:53:57.759Z,11.30
2018-09-08T03:56:25.094Z,11.30
2018-09-08T03:58:52.430Z,11.40
2018-09-08T04:01:19.716Z,11.40
2018-09-08T04:03:48.315Z,11.40
2018-09-08T04:06:16.829Z,11.30
2018-09-08T04:08:45.208Z,11.30
2018-09-08T04:11:13.703Z,11.30
2018-09-08T04:13:42.067Z,11.20
2018-09-08T04:16:10.515Z,11.30
2018-09-08T04:18:38.881Z,11.30
2018-09-08T04:21:07.444Z,11.20
2018-09-08T04:23:36.703Z,11.20
2018-09-08T04:26:06.037Z,11.20
2018-09-08T04:28:34.519Z,11.20
2018-09-08T04:31:03.793Z,11.20
2018-09-08T04:33:32.431Z,11.20
2018-09-08T04:36:01.230Z,11.20
2018-09-08T04:38:29.636Z,11.20
2018-09-08T04:40:58.099Z,11.10
2018-09-08T04:43:26.519Z,11.10
2018-09-08T04:45:54.981Z,11.10
2018-09-08T04:48:23.396Z,11.10
2018-09-08T04:50:51.854Z,11.10
2018-09-08T04:53:20.352Z,11.20
2018-09-08T04:55:48.797Z,11.20
2018-09-08T04:58:17.269Z,11.10
2018-09-08T05:00:45.646Z,11.10
2018-09-08T05:03:14.082Z,11.10
2018-09-08T05:05:42.454Z,11.20
2018-09-08T05:08:10.855Z,11.20
2018-09-08T05:10:40.063Z,11.20
2018-09-08T05:13:08.398Z,11.20
2018-09-08T05:15:36.792Z,11.20
2018-09-08T05:18:05.340Z,11.30
2018-09-08T05:20:33.811Z,11.30
2018-09-08T05:23:02.300Z,11.30
2018-09-08T05:25:30.730Z,11.40
2018-09-08T05:27:59.145Z,11.40
2018-09-08T05:30:27.521Z,11.40
2018-09-08T05:32:55.903Z,11.40
2018-09-08T05:35:24.348Z,11.50
2018-09-08T05:37:52.976Z,11.50
2018-09-08T05:40:21.413Z,11.50
2018-09-08T05:42:49.854Z,11.60
2018-09-08T05:45:18.288Z,11.70
2018-09-08T05:47:46.796Z,11.80
2018-09-08T05:50:15.338Z,11.80
2018-09-08T05:52:43.733Z,11.90
2018-09-08T05:55:12.151Z,12.00
2018-09-08T05:57:40.581Z,12.00
2018-09-08T06:00:09.073Z,12.10
2018-09-08T06:02:37.532Z,12.30
2018-09-08T06:05:06.070Z,12.50
2018-09-08T06:07:34.503Z,12.60
2018-09-08T06:10:02.904Z,12.60
2018-09-08T06:12:31.281Z,12.70
2018-09-08T06:14:59.804Z,12.80
2018-09-08T06:17:28.324Z,12.90
2018-09-08T06:19:56.793Z,12.90
2018-09-08T06:22:25.196Z,13.00
2018-09-08T06:24:53.579Z,13.10
2018-09-08T06:27:22.008Z,13.10
2018-09-08T06:29:50.672Z,13.10
2018-09-08T06:32:19.267Z,13.20
2018-09-08T06:34:47.653Z,13.20
2018-09-08T06:37:16.089Z,13.40
2018-09-08T06:39:44.494Z,13.50
2018-09-08T06:42:13.083Z,13.50
2018-09-08T06:44:41.706Z,13.60
2018-09-08T06:47:10.114Z,13.70
2018-09-08T06:49:38.572Z,13.80
2018-09-08T06:52:07.082Z,13.80
2018-09-08T06:54:35.618Z,14.00
2018-09-08T06:57:04.056Z,14.10
2018-09-08T06:59:32.509Z,14.10
2018-09-08T07:02:00.944Z,14.10
2018-09-08T07:04:29.413Z,14.10
2018-09-08T07:06:57.942Z,14.30
2018-09-08T07:09:27.549Z,14.40
2018-09-08T07:11:56.170Z,14.50
2018-09-08T07:14:24.678Z,14.50
2018-09-08T07:16:54.500Z,14.70
2018-09-08T07:19:22.891Z,14.90
2018-09-08T07:21:51.514Z,14.80
2018-09-08T07:24:19.999Z,14.90
2018-09-08T07:26:48.473Z,15.00
2018-09-08T07:29:17.121Z,15.20
2018-09-08T07:31:45.588Z,15.40
2018-09-08T07:34:14.457Z,15.60
2018-09-08T07:36:42.865Z,15.70
2018-09-08T07:39:11.889Z,16.00
2018-09-08T07:41:40.310Z,16.40
2018-09-08T07:44:08.852Z,17.10
2018-09-08T07:46:37.487Z,17.70
2018-09-08T07:49:05.995Z,17.60
2018-09-08T07:51:34.435Z,17.20
2018-09-08T07:54:02.910Z,17.00
2018-09-08T07:56:31.361Z,17.00
2018-09-08T07:59:00.173Z,17.30
2018-09-08T08:01:28.753Z,17.80
2018-09-08T08:03:57.235Z,18.40
2018-09-08T08:06:25.663Z,18.30
2018-09-08T08:08:54.039Z,18.20
2018-09-08T08:11:22.508Z,18.30
2018-09-08T08:13:50.942Z,18.30
2018-09-08T08:16:19.555Z,18.60
2018-09-08T08:18:48.087Z,19.10
2018-09-08T08:21:16.499Z,20.00
2018-09-08T08:23:44.978Z,20.70
2018-09-08T08:26:13.584Z,21.70
2018-09-08T08:28:42.117Z,22.30
2018-09-08T08:31:10.778Z,22.90
2018-09-08T08:33:39.140Z,22.40
2018-09-08T08:36:09.734Z,23.00
2018-09-08T08:38:38.264Z,23.80
2018-09-08T08:41:07.490Z,24.20
2018-09-08T08:43:36.013Z,25.00
2018-09-08T08:46:05.179Z,25.40
2018-09-08T08:48:34.356Z,24.90
2018-09-08T08:51:14.083Z,25.10
2018-09-08T08:54:55.268Z,24.40
2018-09-08T08:57:24.722Z,23.60
2018-09-08T08:59:53.358Z,23.00
2018-09-08T09:02:21.735Z,23.90
2018-09-08T09:04:50.346Z,23.70
2018-09-08T09:07:18.879Z,23.10
2018-09-08T09:09:48.346Z,22.50
2018-09-08T09:12:16.883Z,21.80
2018-09-08T09:14:45.832Z,22.30
2018-09-08T09:17:14.228Z,22.00
2018-09-08T09:19:54.178Z,22.90
2018-09-08T09:22:33.847Z,23.70
2018-09-08T09:25:08.218Z,24.10
2018-09-08T09:27:39.201Z,24.40
2018-09-08T09:30:08.508Z,24.20
2018-09-08T09:32:36.950Z,24.30
2018-09-08T09:35:05.832Z,24.20
2018-09-08T09:37:34.420Z,24.00
2018-09-08T09:40:03.918Z,23.20
2018-09-08T09:42:33.472Z,22.60
2018-09-08T09:45:01.925Z,22.00
2018-09-08T09:47:30.383Z,22.40
2018-09-08T09:49:58.850Z,23.40
2018-09-08T09:52:27.523Z,23.30
2018-09-08T09:54:55.938Z,23.40
2018-09-08T09:57:24.344Z,23.40
2018-09-08T09:59:52.825Z,23.10
2018-09-08T10:02:51.718Z,22.90
2018-09-08T10:05:21.286Z,23.20
2018-09-08T10:07:50.176Z,23.30
2018-09-08T10:10:20.319Z,23.90
2018-09-08T10:12:48.863Z,24.30
2018-09-08T10:15:17.365Z,24.40
2018-09-08T10:17:46.345Z,23.50
2018-09-08T10:20:16.475Z,22.40
2018-09-08T10:22:45.075Z,21.40
2018-09-08T10:25:15.231Z,21.80
2018-09-08T10:27:44.538Z,21.70
2018-09-08T10:30:14.568Z,21.00
2018-09-08T10:32:43.986Z,20.50
2018-09-08T10:35:12.672Z,20.90
2018-09-08T10:37:41.258Z,20.80
2018-09-08T10:40:10.821Z,20.70
2018-09-08T10:42:39.363Z,20.50
2018-09-08T10:45:07.999Z,20.40
2018-09-08T10:47:36.528Z,20.10
2018-09-08T10:50:05.108Z,20.20
2018-09-08T10:52:39.261Z,20.50
2018-09-08T10:55:07.937Z,20.70
2018-09-08T10:57:36.634Z,20.90
2018-09-08T11:00:06.331Z,20.90
2018-09-08T11:02:35.196Z,21.00
2018-09-08T11:05:03.692Z,21.30
2018-09-08T11:07:32.617Z,21.00
2018-09-08T11:10:01.538Z,20.90
2018-09-08T11:12:31.150Z,20.70
2018-09-08T11:15:00.848Z,20.20
2018-09-08T11:17:29.387Z,20.40
2018-09-08T11:19:58.137Z,20.40
2018-09-08T11:22:27.517Z,20.40
2018-09-08T11:24:55.987Z,20.60
2018-09-08T11:27:26.508Z,21.10
2018-09-08T11:29:55.044Z,21.50
2018-09-08T11:32:23.490Z,21.80
2018-09-08T11:34:52.611Z,21.60
2018-09-08T11:37:21.241Z,21.60
2018-09-08T11:39:49.781Z,21.60
2018-09-08T11:42:18.342Z,21.50
2018-09-08T11:44:46.861Z,21.20
2018-09-08T11:47:15.334Z,21.20
2018-09-08T11:49:43.824Z,21.00
2018-09-08T11:52:12.321Z,21.20
2018-09-08T11:54:40.964Z,21.30
2018-09-08T11:57:09.739Z,21.60
2018-09-08T11:59:38.328Z,21.10
2018-09-08T12:02:06.987Z,20.90
2018-09-08T12:04:35.499Z,20.90
2018-09-08T12:07:04.853Z,20.90
2018-09-08T12:09:33.985Z,21.20
2018-09-08T12:12:04.395Z,21.20
2018-09-08T12:14:32.939Z,21.20
2018-09-08T12:17:01.545Z,21.20
2018-09-08T12:19:30.383Z,21.30
2018-09-08T12:22:00.392Z,20.80
2018-09-08T12:24:28.907Z,20.60
2018-09-08T12:26:57.517Z,20.10
2018-09-08T12:29:26.630Z,19.80
2018-09-08T12:31:55.135Z,19.80
2018-09-08T12:34:23.607Z,20.00
2018-09-08T12:36:52.381Z,20.10
2018-09-08T12:39:20.835Z,20.50
2018-09-08T12:41:49.327Z,20.80
2018-09-08T12:44:18.106Z,21.20
2018-09-08T12:46:46.732Z,21.20
2018-09-08T12:49:15.240Z,21.00
2018-09-08T12:51:44.129Z,20.90
2018-09-08T12:54:12.625Z,21.20
2018-09-08T12:56:41.240Z,21.20
2018-09-08T12:59:09.758Z,21.30
2018-09-08T13:01:38.194Z,21.10
2018-09-08T13:04:07.136Z,21.00
2018-09-08T13:06:36.059Z,21.10
2018-09-08T13:09:06.280Z,21.40
2018-09-08T13:11:34.893Z,20.90
2018-09-08T13:14:03.115Z,20.60
2018-09-08T13:16:31.286Z,20.60
2018-09-08T13:18:59.424Z,20.90
2018-09-08T13:21:27.606Z,21.00
2018-09-08T13:23:55.857Z,20.90
2018-09-08T13:26:24.237Z,21.00
2018-09-08T13:28:53.840Z,21.00
2018-09-08T13:31:22.355Z,20.90
2018-09-08T13:33:50.872Z,20.90
2018-09-08T13:39:12.177Z,20.90
2018-09-08T13:41:40.306Z,20.90
2018-09-08T13:44:08.428Z,21.10
2018-09-08T13:46:36.757Z,21.10
2018-09-08T13:49:04.983Z,21.10
2018-09-08T13:51:33.208Z,21.40
2018-09-08T13:54:02.366Z,22.00
2018-09-08T13:56:30.739Z,21.90
2018-09-08T13:58:59.001Z,21.70
2018-09-08T14:01:27.281Z,21.40
2018-09-08T14:03:55.591Z,21.20
2018-09-08T14:06:24.170Z,21.10
2018-09-08T14:08:52.705Z,21.10
2018-09-08T14:11:21.021Z,21.00
2018-09-08T14:13:49.307Z,20.80
2018-09-08T14:16:17.476Z,20.90
2018-09-08T14:18:45.917Z,20.80
2018-09-08T14:21:14.235Z,20.90
2018-09-08T14:23:42.624Z,21.00
2018-09-08T14:26:10.858Z,20.80
2018-09-08T14:28:39.324Z,20.80
2018-09-08T14:31:07.905Z,21.10
2018-09-08T14:33:37.839Z,21.20
2018-09-08T14:36:06.230Z,20.90
2018-09-08T14:38:34.595Z,20.70
2018-09-08T14:41:02.921Z,20.50
2018-09-08T14:43:31.214Z,20.50
2018-09-08T14:45:59.588Z,20.30
2018-09-08T14:48:27.776Z,20.40
2018-09-08T14:50:56.090Z,20.50
2018-09-08T14:53:24.271Z,20.50
2018-09-08T14:55:52.591Z,20.80
2018-09-08T14:58:20.791Z,20.80
2018-09-08T15:00:49.104Z,20.50
2018-09-08T15:03:18.116Z,20.40
2018-09-08T15:05:46.562Z,20.30
2018-09-08T15:08:16.847Z,20.20
2018-09-08T15:10:45.153Z,20.20
2018-09-08T15:13:13.355Z,20.10
2018-09-08T15:15:41.618Z,20.00
2018-09-08T15:18:09.831Z,19.80
2018-09-08T15:20:38.160Z,19.90
2018-09-08T15:23:06.543Z,19.80
2018-09-08T15:25:34.888Z,19.70
2018-09-08T15:28:03.453Z,19.70
2018-09-08T15:30:32.726Z,20.70
2018-09-08T15:33:01.005Z,19.70
2018-09-08T15:36:28.439Z,19.80
2018-09-08T15:38:57.103Z,19.70
2018-09-08T15:41:25.528Z,19.60
2018-09-08T15:43:54.024Z,19.50
2018-09-08T15:46:23.093Z,19.50
2018-09-08T15:48:51.513Z,19.50
2018-09-08T15:51:20.305Z,19.40
2018-09-08T15:53:48.684Z,19.50
2018-09-08T15:56:17.315Z,19.40
2018-09-08T15:58:45.980Z,19.50
2018-09-08T16:01:14.468Z,19.50
2018-09-08T16:03:42.936Z,19.60
2018-09-08T16:06:11.412Z,19.70
2018-09-08T16:49:03.473Z,19.00
2018-09-08T16:51:31.771Z,18.90
2018-09-08T17:03:10.933Z,18.60
2018-09-08T17:08:42.447Z,18.50
2018-09-08T17:11:10.732Z,18.50
2018-09-08T17:13:39.052Z,18.40
2018-09-08T17:16:07.688Z,18.40
2018-09-08T17:18:35.962Z,18.30
2018-09-08T17:26:00.046Z,18.20
2018-09-08T17:28:28.607Z,18.00
2018-09-08T17:30:56.855Z,18.00
2018-09-08T17:33:25.298Z,18.00
2018-09-08T17:35:53.692Z,18.00
2018-09-08T17:38:21.966Z,18.00
2018-09-08T17:40:50.501Z,17.90
2018-09-08T17:43:18.788Z,17.90
2018-09-08T17:45:47.079Z,17.80
2018-09-08T17:48:15.373Z,17.80
2018-09-08T17:50:43.784Z,17.70
2018-09-08T17:53:12.408Z,17.60
2018-09-08T17:55:40.746Z,17.60
2018-09-08T17:58:08.974Z,17.60
2018-09-08T18:00:38.894Z,17.50
2018-09-08T18:03:07.243Z,17.40
2018-09-08T18:05:35.834Z,17.30
2018-09-08T18:08:04.090Z,17.30
2018-09-08T18:10:32.349Z,17.30
2018-09-08T18:13:00.636Z,17.20
2018-09-08T18:15:29.009Z,17.20
2018-09-08T18:17:57.381Z,17.20
2018-09-08T18:20:25.645Z,17.10
2018-09-08T18:22:55.326Z,17.10
2018-09-08T18:25:23.702Z,17.10
2018-09-08T18:27:52.029Z,17.10
2018-09-08T18:30:20.293Z,17.10
2018-09-08T18:32:48.757Z,17.00
2018-09-08T18:40:10.345Z,16.90
2018-09-08T18:42:38.527Z,16.90
2018-09-08T18:45:06.832Z,16.90
2018-09-08T18:47:35.062Z,16.90
2018-09-08T18:50:03.750Z,16.90
2018-09-08T18:52:33.292Z,16.90
2018-09-08T18:55:02.098Z,16.90
2018-09-08T18:57:30.600Z,16.80
2018-09-08T18:59:59.229Z,16.90
2018-09-08T19:02:27.922Z,16.90
2018-09-08T19:04:56.185Z,16.90
2018-09-08T19:07:24.438Z,16.90
2018-09-08T19:09:58.089Z,16.90
2018-09-08T19:12:26.383Z,16.80
2018-09-08T19:15:00.578Z,16.80
2018-09-08T19:17:28.856Z,16.80
2018-09-08T19:24:51.965Z,16.70
2018-09-08T19:27:20.285Z,16.70
2018-09-08T19:29:49.241Z,16.70
2018-09-08T19:32:18.740Z,16.70
2018-09-08T19:34:51.361Z,16.70
2018-09-08T19:37:19.626Z,16.60
2018-09-08T19:39:47.938Z,16.60
2018-09-08T19:42:17.095Z,16.60
2018-09-08T19:44:45.280Z,16.60
2018-09-08T19:47:18.787Z,16.60
2018-09-08T19:49:47.051Z,16.70
2018-09-08T19:52:20.827Z,16.70
2018-09-08T19:54:49.263Z,16.70
2018-09-08T19:57:22.836Z,16.60
2018-09-08T19:59:51.725Z,16.60
2018-09-08T20:02:20.130Z,16.60
2018-09-08T20:04:48.990Z,16.60
2018-09-08T20:07:17.862Z,16.50
2018-09-08T20:09:47.051Z,16.50
2018-09-08T20:12:16.027Z,16.50
2018-09-08T20:19:44.515Z,16.40
2018-09-08T20:22:14.593Z,16.40
2018-09-08T20:24:43.123Z,16.40
2018-09-08T20:27:11.810Z,16.40
2018-09-08T20:29:42.000Z,16.40
2018-09-08T20:32:11.289Z,16.40
2018-09-08T20:34:39.905Z,16.40
2018-09-08T20:37:08.438Z,16.40
2018-09-08T20:39:37.160Z,16.40
2018-09-08T20:42:05.664Z,16.40
2018-09-08T20:44:36.981Z,16.40
2018-09-08T20:47:08.067Z,16.30
2018-09-08T20:49:36.282Z,16.30
2018-09-08T20:52:04.822Z,16.20
2018-09-08T20:54:33.020Z,16.20
2018-09-08T20:57:01.272Z,16.00
2018-09-08T20:59:29.565Z,15.90
2018-09-08T21:01:57.869Z,15.90
2018-09-08T21:04:26.165Z,15.90
2018-09-08T21:06:54.479Z,16.00
2018-09-08T21:09:22.926Z,16.00
2018-09-08T21:11:51.192Z,16.00
2018-09-08T21:14:19.640Z,15.90
2018-09-08T21:16:47.995Z,15.90
2018-09-08T21:19:16.295Z,15.80
2018-09-08T21:21:44.480Z,15.80
2018-09-08T21:24:12.738Z,15.80
2018-09-08T21:26:41.061Z,15.80
2018-09-08T21:29:09.312Z,15.80
2018-09-08T21:31:37.661Z,15.80
2018-09-08T21:34:06.035Z,15.80
2018-09-08T21:36:34.293Z,15.80
2018-09-08T21:39:02.518Z,15.70
2018-09-08T21:41:30.736Z,15.70
2018-09-08T21:43:59.120Z,15.70
2018-09-08T21:46:27.587Z,15.60
2018-09-08T21:48:56.879Z,15.60
2018-09-08T21:51:25.169Z,15.50
2018-09-08T21:53:53.948Z,15.50
2018-09-08T21:56:22.715Z,15.40
2018-09-08T21:58:50.948Z,15.40
2018-09-08T22:01:24.613Z,15.40
2018-09-08T22:03:53.525Z,15.40
2018-09-08T22:06:22.470Z,15.40
2018-09-08T22:08:52.453Z,15.40
2018-09-08T22:11:21.050Z,15.40
2018-09-08T22:13:49.565Z,15.30
2018-09-08T22:16:18.684Z,15.30
2018-09-08T22:18:46.864Z,15.30
2018-09-08T22:21:15.072Z,15.30
2018-09-08T22:23:43.376Z,15.30
2018-09-08T22:26:11.617Z,15.30
2018-09-08T22:28:39.809Z,15.40
2018-09-08T22:31:08.169Z,15.40
2018-09-08T22:33:36.393Z,15.40
2018-09-08T22:36:04.554Z,15.40
2018-09-08T22:38:34.004Z,15.40
2018-09-08T22:41:02.283Z,15.40
2018-09-08T22:43:30.472Z,15.40
2018-09-08T22:45:58.893Z,15.30
2018-09-08T22:48:27.146Z,15.30
2018-09-08T22:50:55.348Z,15.30
2018-09-08T22:53:23.527Z,15.20
2018-09-08T22:55:51.933Z,15.20
2018-09-08T22:58:20.181Z,15.10
2018-09-08T23:00:48.483Z,15.00
2018-09-08T23:03:16.924Z,14.90
2018-09-08T23:05:45.444Z,14.90
2018-09-08T23:08:13.770Z,14.80
2018-09-08T23:10:42.049Z,14.80
2018-09-08T23:13:10.398Z,14.80
2018-09-08T23:15:38.584Z,14.80
2018-09-08T23:18:07.728Z,14.80
2018-09-08T23:20:36.238Z,14.80
2018-09-08T23:23:04.686Z,14.90
2018-09-08T23:25:33.179Z,14.90
2018-09-08T23:28:01.788Z,14.90
2018-09-08T23:30:30.690Z,14.90
2018-09-08T23:32:59.034Z,15.00
2018-09-08T23:35:27.224Z,15.00
2018-09-08T23:37:55.502Z,15.00
2018-09-08T23:45:17.642Z,14.90
2018-09-08T23:47:46.110Z,14.90
2018-09-08T23:50:14.423Z,14.90
2018-09-08T23:52:42.707Z,14.90
2018-09-08T23:55:11.456Z,14.90
2018-09-08T23:57:40.941Z,14.90
